Time,TemperatureF,DewpointF,PressureIn,WindDirection,WindDirectionDegrees,WindSpeedMPH,WindSpeedGustMPH,Humidity,HourlyPrecipIn,Conditions,Clouds,dailyrainin,SoftwareType,DateUTC
2013-03-08 00:01:00,30.8,26.2,30.45,NW,311,0.0,0.0,83,0.00,,,0.15,Wunderground v.1.15,2013-03-08 05:01:00,
2013-03-08 00:10:00,30.7,26.1,30.45,NW,311,0.0,0.0,83,0.00,,,0.00,Wunderground v.1.15,2013-03-08 05:10:00,
2013-03-08 00:20:00,30.6,26.3,30.45,NW,312,0.0,0.0,84,0.00,,,0.00,Wunderground v.1.15,2013-03-08 05:20:00,
2013-03-08 00:30:00,30.6,26.3,30.45,NW,311,0.0,0.0,84,0.00,,,0.00,Wunderground v.1.15,2013-03-08 05:30:00,
2013-03-08 00:40:00,30.6,26.3,30.45,NW,311,0.0,0.0,84,0.00,,,0.00,Wunderground v.1.15,2013-03-08 05:40:00,
2013-03-08 00:50:00,30.6,26.1,30.45,NW,311,0.0,0.0,83,0.00,,,0.00,Wunderground v.1.15,2013-03-08 05:50:00,
2013-03-08 01:00:00,30.5,26.0,30.45,NW,311,0.0,0.0,83,0.00,,,0.00,Wunderground v.1.15,2013-03-08 06:00:00,
2013-03-08 01:10:00,30.2,25.7,30.45,NW,311,0.0,0.0,83,0.00,,,0.00,Wunderground v.1.15,2013-03-08 06:10:00,
2013-03-08 01:20:00,29.9,25.7,30.45,NW,311,0.0,0.0,84,0.00,,,0.00,Wunderground v.1.15,2013-03-08 06:20:00,
2013-03-08 01:30:00,29.4,25.2,30.45,NW,311,0.0,0.0,84,0.00,,,0.00,Wunderground v.1.15,2013-03-08 06:30:00,
2013-03-08 01:40:00,28.8,24.9,30.45,NW,311,0.0,0.0,85,0.00,,,0.00,Wunderground v.1.15,2013-03-08 06:40:00,
2013-03-08 01:50:00,28.2,24.6,30.45,NW,311,0.0,0.0,86,0.00,,,0.00,Wunderground v.1.15,2013-03-08 06:50:00,
2013-03-08 02:00:00,27.9,24.3,30.45,NW,311,0.0,0.0,86,0.00,,,0.00,Wunderground v.1.15,2013-03-08 07:00:00,
2013-03-08 02:10:00,27.8,24.4,30.46,NW,311,0.0,0.0,87,0.00,,,0.00,Wunderground v.1.15,2013-03-08 07:10:00,
2013-03-08 02:20:00,27.6,24.5,30.46,NW,311,0.0,0.0,88,0.00,,,0.00,Wunderground v.1.15,2013-03-08 07:20:00,
2013-03-08 02:30:00,27.1,24.0,30.46,NW,311,0.0,0.0,88,0.00,,,0.00,Wunderground v.1.15,2013-03-08 07:30:00,
2013-03-08 02:40:00,26.8,24.0,30.46,NW,311,0.0,0.0,89,0.00,,,0.00,Wunderground v.1.15,2013-03-08 07:40:00,
2013-03-08 02:50:00,26.4,23.6,30.46,NW,311,0.0,0.0,89,0.00,,,0.00,Wunderground v.1.15,2013-03-08 07:50:00,
2013-03-08 03:00:00,26.0,23.2,30.45,NW,311,0.0,0.0,89,0.00,,,0.00,Wunderground v.1.15,2013-03-08 08:00:00,
2013-03-08 03:10:00,25.7,22.9,30.45,NW,311,0.0,0.0,89,0.00,,,0.00,Wunderground v.1.15,2013-03-08 08:10:00,
2013-03-08 03:20:00,25.6,23.1,30.45,NW,311,0.0,0.0,90,0.00,,,0.00,Wunderground v.1.15,2013-03-08 08:20:00,
2013-03-08 03:30:00,25.5,23.2,30.45,NW,311,0.0,0.0,91,0.00,,,0.00,Wunderground v.1.15,2013-03-08 08:30:00,
2013-03-08 03:36:00,25.5,23.2,30.46,NW,311,0.0,0.0,91,0.00,,,0.00,Wunderground v.1.15,2013-03-08 08:36:00,
2013-03-08 03:50:00,25.3,23.0,30.47,NW,311,0.0,0.0,91,0.00,,,0.00,Wunderground v.1.15,2013-03-08 08:50:00,
2013-03-08 04:00:00,25.6,23.3,30.46,NW,311,0.0,0.0,91,0.00,,,0.00,Wunderground v.1.15,2013-03-08 09:00:00,
2013-03-08 04:10:00,25.3,23.0,30.47,NW,311,0.0,0.0,91,0.00,,,0.00,Wunderground v.1.15,2013-03-08 09:10:00,
2013-03-08 04:20:00,24.9,22.6,30.47,NW,312,0.0,0.0,91,0.00,,,0.00,Wunderground v.1.15,2013-03-08 09:20:00,
2013-03-08 04:30:00,24.7,22.4,30.47,NW,311,0.0,0.0,91,0.00,,,0.00,Wunderground v.1.15,2013-03-08 09:30:00,
2013-03-08 04:36:00,24.6,22.3,30.47,NW,311,0.0,0.0,91,0.00,,,0.00,Wunderground v.1.15,2013-03-08 09:36:00,
2013-03-08 04:50:00,24.2,22.2,30.47,NW,311,0.0,0.0,92,0.00,,,0.00,Wunderground v.1.15,2013-03-08 09:50:00,
2013-03-08 05:00:00,24.0,22.0,30.47,NW,311,0.0,0.0,92,0.00,,,0.00,Wunderground v.1.15,2013-03-08 10:00:00,
2013-03-08 05:10:00,23.9,21.9,30.47,NW,311,0.0,0.0,92,0.00,,,0.00,Wunderground v.1.15,2013-03-08 10:10:00,
2013-03-08 05:20:00,24.0,22.0,30.48,NW,311,0.0,0.0,92,0.00,,,0.00,Wunderground v.1.15,2013-03-08 10:20:00,
2013-03-08 05:30:00,23.9,21.9,30.49,NW,311,0.0,0.0,92,0.00,,,0.00,Wunderground v.1.15,2013-03-08 10:30:00,
2013-03-08 05:40:00,23.7,21.7,30.49,NW,311,0.0,0.0,92,0.00,,,0.00,Wunderground v.1.15,2013-03-08 10:40:00,
2013-03-08 05:46:00,23.7,21.7,30.49,NW,312,0.0,0.0,92,0.00,,,0.00,Wunderground v.1.15,2013-03-08 10:46:00,
2013-03-08 06:00:00,23.5,21.5,30.50,NW,311,0.0,0.0,92,0.00,,,0.00,Wunderground v.1.15,2013-03-08 11:00:00,
2013-03-08 06:10:00,23.6,21.9,30.50,NW,311,0.0,0.0,93,0.00,,,0.00,Wunderground v.1.15,2013-03-08 11:10:00,
2013-03-08 06:20:00,23.5,21.8,30.51,NW,311,0.0,0.0,93,0.00,,,0.00,Wunderground v.1.15,2013-03-08 11:20:00,
2013-03-08 06:26:00,23.7,22.0,30.51,NW,311,0.0,0.0,93,0.00,,,0.00,Wunderground v.1.15,2013-03-08 11:26:00,
2013-03-08 06:40:00,23.5,21.5,30.51,NW,311,0.0,0.0,92,0.00,,,0.00,Wunderground v.1.15,2013-03-08 11:40:00,
2013-03-08 06:50:00,23.1,21.1,30.51,NW,311,0.0,0.0,92,0.00,,,0.00,Wunderground v.1.15,2013-03-08 11:50:00,
2013-03-08 07:00:00,22.8,20.8,30.51,NW,311,0.0,0.0,92,0.00,,,0.00,Wunderground v.1.15,2013-03-08 12:00:00,
2013-03-08 07:10:00,22.6,20.9,30.51,NW,311,0.0,0.0,93,0.00,,,0.00,Wunderground v.1.15,2013-03-08 12:10:00,
2013-03-08 07:20:00,22.9,21.2,30.52,NW,312,0.0,0.0,93,0.00,,,0.00,Wunderground v.1.15,2013-03-08 12:20:00,
2013-03-08 07:30:00,23.8,22.1,30.52,NW,311,0.0,1.0,93,0.00,,,0.00,Wunderground v.1.15,2013-03-08 12:30:00,
2013-03-08 07:40:00,24.9,23.2,30.52,NW,311,0.0,0.0,93,0.00,,,0.00,Wunderground v.1.15,2013-03-08 12:40:00,
2013-03-08 07:50:00,25.6,23.9,30.52,NW,312,0.0,0.0,93,0.00,,,0.00,Wunderground v.1.15,2013-03-08 12:50:00,
2013-03-08 08:00:00,26.6,24.8,30.51,NW,311,0.0,0.0,93,0.00,,,0.00,Wunderground v.1.15,2013-03-08 13:00:00,
2013-03-08 08:10:00,27.5,25.5,30.51,NW,311,0.0,1.0,92,0.00,,,0.00,Wunderground v.1.15,2013-03-08 13:10:00,
2013-03-08 08:20:00,28.2,25.6,30.51,NW,313,1.0,1.0,90,0.00,,,0.00,Wunderground v.1.15,2013-03-08 13:20:00,
2013-03-08 08:30:00,29.0,25.3,30.52,NW,321,2.0,2.0,86,0.00,,,0.00,Wunderground v.1.15,2013-03-08 13:30:00,
2013-03-08 08:40:00,29.8,25.6,30.52,NW,322,2.0,2.0,84,0.00,,,0.00,Wunderground v.1.15,2013-03-08 13:40:00,
2013-03-08 08:50:00,30.8,26.2,30.53,NW,324,1.0,1.0,83,0.00,,,0.00,Wunderground v.1.15,2013-03-08 13:50:00,
2013-03-08 09:00:00,31.7,26.5,30.53,NE,56,1.0,2.0,81,0.00,,,0.00,Wunderground v.1.15,2013-03-08 14:00:00,
2013-03-08 09:06:00,31.8,26.0,30.53,East,96,2.0,6.0,79,0.00,,,0.00,Wunderground v.1.15,2013-03-08 14:06:00,
2013-03-08 09:20:00,31.9,25.8,30.53,ENE,71,4.0,4.0,78,0.00,,,0.00,Wunderground v.1.15,2013-03-08 14:20:00,
2013-03-08 09:30:00,32.6,26.5,30.53,East,90,3.0,3.0,78,0.00,,,0.00,Wunderground v.1.15,2013-03-08 14:30:00,
2013-03-08 09:40:00,33.2,25.8,30.54,ENE,78,3.0,3.0,74,0.00,,,0.00,Wunderground v.1.15,2013-03-08 14:40:00,
2013-03-08 09:50:00,33.3,26.2,30.54,East,98,4.0,7.0,75,0.00,,,0.01,Wunderground v.1.15,2013-03-08 14:50:00,
2013-03-08 10:00:00,32.9,25.2,30.54,East,83,7.0,7.0,73,0.00,,,0.01,Wunderground v.1.15,2013-03-08 15:00:00,
2013-03-08 10:10:00,33.8,26.1,30.54,East,96,4.0,6.0,73,0.00,,,0.01,Wunderground v.1.15,2013-03-08 15:10:00,
2013-03-08 10:21:00,34.1,25.7,30.54,East,94,4.0,6.0,71,0.00,,,0.01,Wunderground v.1.15,2013-03-08 15:21:00,
2013-03-08 10:30:00,34.2,25.4,30.54,East,88,5.0,5.0,70,0.00,,,0.01,Wunderground v.1.15,2013-03-08 15:30:00,
2013-03-08 10:40:00,34.2,25.8,30.54,ENE,77,6.0,6.0,71,0.00,,,0.01,Wunderground v.1.15,2013-03-08 15:40:00,
2013-03-08 10:50:00,35.0,25.9,30.53,ENE,74,3.0,4.0,69,0.00,,,0.01,Wunderground v.1.15,2013-03-08 15:50:00,
2013-03-08 11:01:00,35.6,25.7,30.54,East,94,2.0,6.0,67,0.00,,,0.01,Wunderground v.1.15,2013-03-08 16:01:00,
2013-03-08 11:10:00,34.9,25.0,30.53,ESE,118,6.0,6.0,67,0.00,,,0.01,Wunderground v.1.15,2013-03-08 16:10:00,
2013-03-08 11:20:00,34.9,25.4,30.53,East,79,6.0,6.0,68,0.00,,,0.01,Wunderground v.1.15,2013-03-08 16:20:00,
2013-03-08 11:30:00,35.6,26.1,30.53,ENE,74,3.0,3.0,68,0.00,,,0.01,Wunderground v.1.15,2013-03-08 16:30:00,
2013-03-08 11:36:00,35.9,26.4,30.53,NE,53,4.0,4.0,68,0.00,,,0.01,Wunderground v.1.15,2013-03-08 16:36:00,
2013-03-08 11:46:00,36.4,26.1,30.53,North,11,3.0,3.0,66,0.00,,,0.01,Wunderground v.1.15,2013-03-08 16:46:00,
2013-03-08 12:01:00,36.6,24.8,30.52,East,96,4.0,6.0,62,0.00,,,0.01,Wunderground v.1.15,2013-03-08 17:01:00,
2013-03-08 12:10:00,36.1,25.5,30.52,East,86,6.0,7.0,65,0.00,,,0.01,Wunderground v.1.15,2013-03-08 17:10:00,
2013-03-08 12:20:00,36.4,25.7,30.52,ENE,73,5.0,5.0,65,0.00,,,0.01,Wunderground v.1.15,2013-03-08 17:20:00,
2013-03-08 12:30:00,37.1,24.9,30.52,NE,40,3.0,3.0,61,0.00,,,0.01,Wunderground v.1.15,2013-03-08 17:30:00,
2013-03-08 12:40:00,37.3,26.2,30.52,East,90,3.0,5.0,64,0.00,,,0.01,Wunderground v.1.15,2013-03-08 17:40:00,
2013-03-08 12:50:00,37.3,25.8,30.52,ENE,59,4.0,4.0,63,0.00,,,0.01,Wunderground v.1.15,2013-03-08 17:50:00,
2013-03-08 13:00:00,37.9,26.8,30.52,North,11,2.0,2.0,64,0.00,,,0.01,Wunderground v.1.15,2013-03-08 18:00:00,
2013-03-08 13:10:00,38.1,27.4,30.52,NW,324,2.0,4.0,65,0.00,,,0.01,Wunderground v.1.15,2013-03-08 18:10:00,
2013-03-08 13:20:00,38.4,26.9,30.51,NNE,24,3.0,3.0,63,0.00,,,0.01,Wunderground v.1.15,2013-03-08 18:20:00,
2013-03-08 13:30:00,38.4,26.1,30.51,NNE,30,3.0,4.0,61,0.00,,,0.01,Wunderground v.1.15,2013-03-08 18:30:00,
2013-03-08 13:40:00,38.5,27.4,30.51,NE,37,3.0,3.0,64,0.00,,,0.01,Wunderground v.1.15,2013-03-08 18:40:00,
2013-03-08 13:50:00,38.9,26.6,30.50,North,360,3.0,3.0,61,0.00,,,0.01,Wunderground v.1.15,2013-03-08 18:50:00,
2013-03-08 14:00:00,39.3,26.6,30.50,North,360,2.0,2.0,60,0.00,,,0.01,Wunderground v.1.15,2013-03-08 19:00:00,
2013-03-08 14:10:00,39.3,27.7,30.50,East,84,2.0,2.0,63,0.00,,,0.01,Wunderground v.1.15,2013-03-08 19:10:00,
2013-03-08 14:20:00,39.3,27.0,30.50,NE,40,2.0,3.0,61,0.00,,,0.01,Wunderground v.1.15,2013-03-08 19:20:00,
2013-03-08 14:30:00,39.4,27.1,30.49,NW,322,2.0,2.0,61,0.00,,,0.01,Wunderground v.1.15,2013-03-08 19:30:00,
2013-03-08 14:40:00,39.8,27.4,30.49,NNE,18,2.0,3.0,61,0.00,,,0.01,Wunderground v.1.15,2013-03-08 19:40:00,
2013-03-08 14:50:00,39.9,27.9,30.48,NE,53,2.0,3.0,62,0.00,,,0.01,Wunderground v.1.15,2013-03-08 19:50:00,
2013-03-08 15:00:00,40.3,27.9,30.48,NNE,15,3.0,3.0,61,0.00,,,0.01,Wunderground v.1.15,2013-03-08 20:00:00,
2013-03-08 15:10:00,40.4,28.4,30.48,NNW,340,3.0,3.0,62,0.00,,,0.01,Wunderground v.1.15,2013-03-08 20:10:00,
2013-03-08 15:16:00,40.3,27.9,30.48,North,5,3.0,5.0,61,0.00,,,0.01,Wunderground v.1.15,2013-03-08 20:16:00,
2013-03-08 15:30:00,40.5,28.1,30.48,NE,34,3.0,3.0,61,0.00,,,0.01,Wunderground v.1.15,2013-03-08 20:30:00,
2013-03-08 15:41:00,40.6,28.6,30.48,NNE,20,3.0,6.0,62,0.00,,,0.01,Wunderground v.1.15,2013-03-08 20:41:00,
2013-03-08 15:51:00,40.5,27.3,30.47,NNW,346,3.0,7.0,59,0.00,,,0.01,Wunderground v.1.15,2013-03-08 20:51:00,
2013-03-08 16:00:00,40.5,27.7,30.46,NNE,21,4.0,4.0,60,0.00,,,0.01,Wunderground v.1.15,2013-03-08 21:00:00,
2013-03-08 16:10:00,40.7,28.3,30.45,NNE,16,4.0,4.0,61,0.00,,,0.01,Wunderground v.1.15,2013-03-08 21:10:00,
2013-03-08 16:20:00,40.9,28.9,30.45,NNE,15,4.0,4.0,62,0.00,,,0.01,Wunderground v.1.15,2013-03-08 21:20:00,
2013-03-08 16:30:00,41.1,28.7,30.45,ENE,66,3.0,4.0,61,0.00,,,0.01,Wunderground v.1.15,2013-03-08 21:30:00,
2013-03-08 16:41:00,41.3,28.9,30.44,NNE,21,3.0,4.0,61,0.00,,,0.01,Wunderground v.1.15,2013-03-08 21:41:00,
2013-03-08 16:50:00,40.9,28.5,30.44,NNE,18,4.0,4.0,61,0.00,,,0.01,Wunderground v.1.15,2013-03-08 21:50:00,
2013-03-08 17:00:00,40.6,28.6,30.44,North,351,3.0,5.0,62,0.00,,,0.01,Wunderground v.1.15,2013-03-08 22:00:00,
2013-03-08 17:10:00,40.7,28.3,30.45,North,11,3.0,3.0,61,0.00,,,0.01,Wunderground v.1.15,2013-03-08 22:10:00,
2013-03-08 17:16:00,40.6,28.2,30.45,NNE,19,3.0,3.0,61,0.00,,,0.01,Wunderground v.1.15,2013-03-08 22:16:00,
2013-03-08 17:30:00,40.3,27.9,30.45,North,10,3.0,4.0,61,0.00,,,0.01,Wunderground v.1.15,2013-03-08 22:30:00,
2013-03-08 17:40:00,40.2,27.8,30.45,North,11,2.0,3.0,61,0.00,,,0.01,Wunderground v.1.15,2013-03-08 22:40:00,
2013-03-08 17:51:00,39.6,28.4,30.44,NNE,13,3.0,3.0,64,0.00,,,0.01,Wunderground v.1.15,2013-03-08 22:51:00,
2013-03-08 18:00:00,39.3,28.5,30.44,North,10,3.0,3.0,65,0.00,,,0.01,Wunderground v.1.15,2013-03-08 23:00:00,
2013-03-08 18:06:00,39.1,28.3,30.45,NNE,15,2.0,3.0,65,0.00,,,0.01,Wunderground v.1.15,2013-03-08 23:06:00,
2013-03-08 18:20:00,38.1,28.1,30.44,NNE,17,3.0,3.0,67,0.00,,,0.01,Wunderground v.1.15,2013-03-08 23:20:00,
2013-03-08 18:30:00,37.5,27.9,30.44,NNE,17,2.0,3.0,68,0.00,,,0.01,Wunderground v.1.15,2013-03-08 23:30:00,
2013-03-08 18:51:00,36.4,27.9,30.44,NNE,17,1.0,1.0,71,0.00,,,0.01,Wunderground v.1.15,2013-03-08 23:51:00,
2013-03-08 19:00:00,35.9,28.1,30.45,NNE,17,0.0,0.0,73,0.00,,,0.01,Wunderground v.1.15,2013-03-09 00:00:00,
2013-03-08 19:10:00,35.3,27.2,30.45,NNE,17,0.0,0.0,72,0.00,,,0.01,Wunderground v.1.15,2013-03-09 00:10:00,
2013-03-08 19:20:00,35.2,26.7,30.45,NNE,17,0.0,0.0,71,0.00,,,0.01,Wunderground v.1.15,2013-03-09 00:20:00,
2013-03-08 19:30:00,35.0,26.9,30.46,NNE,17,0.0,0.0,72,0.00,,,0.01,Wunderground v.1.15,2013-03-09 00:30:00,
2013-03-08 19:40:00,35.0,26.2,30.46,NNE,17,0.0,1.0,70,0.00,,,0.01,Wunderground v.1.15,2013-03-09 00:40:00,
2013-03-08 19:50:00,35.1,25.9,30.46,NNE,17,0.0,0.0,69,0.00,,,0.01,Wunderground v.1.15,2013-03-09 00:50:00,
2013-03-08 20:00:00,35.2,25.7,30.46,NNE,17,0.0,0.0,68,0.00,,,0.01,Wunderground v.1.15,2013-03-09 01:00:00,
2013-03-08 20:10:00,35.2,25.7,30.46,NNE,17,0.0,0.0,68,0.00,,,0.01,Wunderground v.1.15,2013-03-09 01:10:00,
2013-03-08 20:20:00,34.8,26.0,30.46,NNE,17,0.0,0.0,70,0.00,,,0.01,Wunderground v.1.15,2013-03-09 01:20:00,
2013-03-08 20:30:00,34.1,26.3,30.47,NNE,17,0.0,0.0,73,0.00,,,0.01,Wunderground v.1.15,2013-03-09 01:30:00,
2013-03-08 20:40:00,33.2,25.8,30.47,NNE,17,0.0,0.0,74,0.00,,,0.01,Wunderground v.1.15,2013-03-09 01:40:00,
2013-03-08 20:50:00,32.8,25.7,30.47,NNE,17,0.0,0.0,75,0.00,,,0.01,Wunderground v.1.15,2013-03-09 01:50:00,
2013-03-08 21:01:00,32.5,25.5,30.47,NNE,17,0.0,2.0,75,0.00,,,0.01,Wunderground v.1.15,2013-03-09 02:01:00,
2013-03-08 21:10:00,32.4,25.4,30.46,NNE,17,0.0,1.0,75,0.00,,,0.01,Wunderground v.1.15,2013-03-09 02:10:00,
2013-03-08 21:20:00,32.7,25.3,30.46,NNE,17,0.0,0.0,74,0.00,,,0.01,Wunderground v.1.15,2013-03-09 02:20:00,
2013-03-08 21:30:00,32.9,25.5,30.45,NNE,17,0.0,0.0,74,0.00,,,0.01,Wunderground v.1.15,2013-03-09 02:30:00,
2013-03-08 21:40:00,33.0,25.3,30.45,NNE,17,0.0,0.0,73,0.00,,,0.01,Wunderground v.1.15,2013-03-09 02:40:00,
2013-03-08 21:50:00,32.6,25.2,30.44,NNE,17,0.0,1.0,74,0.00,,,0.01,Wunderground v.1.15,2013-03-09 02:50:00,
2013-03-08 22:00:00,32.4,25.4,30.44,NNE,17,1.0,1.0,75,0.00,,,0.01,Wunderground v.1.15,2013-03-09 03:00:00,
2013-03-08 22:10:00,32.2,25.2,30.44,NNE,17,1.0,1.0,75,0.00,,,0.01,Wunderground v.1.15,2013-03-09 03:10:00,
2013-03-08 22:20:00,32.1,25.1,30.44,NNE,17,0.0,0.0,75,0.00,,,0.01,Wunderground v.1.15,2013-03-09 03:20:00,
2013-03-08 22:30:00,32.1,25.1,30.44,NNE,17,0.0,0.0,75,0.00,,,0.01,Wunderground v.1.15,2013-03-09 03:30:00,
2013-03-08 22:40:00,32.1,24.7,30.44,NNE,17,0.0,0.0,74,0.00,,,0.01,Wunderground v.1.15,2013-03-09 03:40:00,
2013-03-08 22:50:00,32.0,25.0,30.45,NNE,17,0.0,0.0,75,0.00,,,0.01,Wunderground v.1.15,2013-03-09 03:50:00,
2013-03-08 23:00:00,31.4,25.0,30.45,NNE,17,0.0,0.0,77,0.00,,,0.01,Wunderground v.1.15,2013-03-09 04:00:00,
2013-03-08 23:10:00,31.1,24.7,30.45,NNE,17,0.0,1.0,77,0.00,,,0.01,Wunderground v.1.15,2013-03-09 04:10:00,
2013-03-08 23:20:00,31.1,25.0,30.45,NNE,17,0.0,0.0,78,0.00,,,0.01,Wunderground v.1.15,2013-03-09 04:20:00,
2013-03-08 23:30:00,30.5,24.8,30.45,NNE,17,0.0,0.0,79,0.00,,,0.01,Wunderground v.1.15,2013-03-09 04:30:00,
2013-03-08 23:40:00,30.0,24.6,30.45,NNE,17,0.0,0.0,80,0.00,,,0.01,Wunderground v.1.15,2013-03-09 04:40:00,
2013-03-08 23:50:00,30.2,24.8,30.44,NNE,17,0.0,0.0,80,0.00,,,0.01,Wunderground v.1.15,2013-03-09 04:50:00,